sensor_id;sensor_type;location;lat;lon;timestamp;temperature;humidity
21171;DHT22;10743;52.160;20.910;2023-05-31T00:02:00;28.40;29.10
21171;DHT22;10743;52.160;20.910;2023-05-31T00:04:27;28.30;29.20
21171;DHT22;10743;52.160;20.910;2023-05-31T00:06:54;28.30;29.20
21171;DHT22;10743;52.160;20.910;2023-05-31T00:09:21;28.20;29.30
21171;DHT22;10743;52.160;20.910;2023-05-31T00:11:48;28.10;29.00
21171;DHT22;10743;52.160;20.910;2023-05-31T00:14:15;28.10;29.40
21171;DHT22;10743;52.160;20.910;2023-05-31T00:16:42;28.00;29.50
21171;DHT22;10743;52.160;20.910;2023-05-31T00:19:29;28.00;29.60
21171;DHT22;10743;52.160;20.910;2023-05-31T00:21:56;27.90;29.60
21171;DHT22;10743;52.160;20.910;2023-05-31T00:24:24;27.90;29.60
21171;DHT22;10743;52.160;20.910;2023-05-31T00:26:51;27.80;29.70
21171;DHT22;10743;52.160;20.910;2023-05-31T00:29:18;27.70;29.70
21171;DHT22;10743;52.160;20.910;2023-05-31T00:31:45;27.70;29.80
21171;DHT22;10743;52.160;20.910;2023-05-31T00:34:12;27.70;30.00
21171;DHT22;10743;52.160;20.910;2023-05-31T00:36:39;27.60;30.10
21171;DHT22;10743;52.160;20.910;2023-05-31T00:39:06;27.60;30.10
21171;DHT22;10743;52.160;20.910;2023-05-31T00:41:33;27.50;30.10
21171;DHT22;10743;52.160;20.910;2023-05-31T00:44:00;27.50;30.30
21171;DHT22;10743;52.160;20.910;2023-05-31T00:46:33;27.50;30.20
21171;DHT22;10743;52.160;20.910;2023-05-31T00:49:03;27.40;30.10
21171;DHT22;10743;52.160;20.910;2023-05-31T00:51:31;27.40;30.10
21171;DHT22;10743;52.160;20.910;2023-05-31T00:53:59;27.30;30.10
21171;DHT22;10743;52.160;20.910;2023-05-31T00:56:27;27.30;30.30
21171;DHT22;10743;52.160;20.910;2023-05-31T00:58:59;27.30;30.40
21171;DHT22;10743;52.160;20.910;2023-05-31T01:01:27;27.20;30.50
21171;DHT22;10743;52.160;20.910;2023-05-31T01:04:00;27.20;30.50
21171;DHT22;10743;52.160;20.910;2023-05-31T01:06:29;27.20;30.50
21171;DHT22;10743;52.160;20.910;2023-05-31T01:09:03;27.10;30.40
21171;DHT22;10743;52.160;20.910;2023-05-31T01:12:02;27.00;30.30
21171;DHT22;10743;52.160;20.910;2023-05-31T01:14:55;27.00;30.30
21171;DHT22;10743;52.160;20.910;2023-05-31T01:17:43;26.90;30.40
21171;DHT22;10743;52.160;20.910;2023-05-31T01:20:35;26.90;30.60
21171;DHT22;10743;52.160;20.910;2023-05-31T01:26:39;26.80;30.60
21171;DHT22;10743;52.160;20.910;2023-05-31T01:29:17;26.80;30.80
21171;DHT22;10743;52.160;20.910;2023-05-31T01:31:47;26.70;30.70
21171;DHT22;10743;52.160;20.910;2023-05-31T01:34:15;26.70;30.70
21171;DHT22;10743;52.160;20.910;2023-05-31T01:36:42;26.70;30.80
21171;DHT22;10743;52.160;20.910;2023-05-31T01:39:10;26.60;30.80
21171;DHT22;10743;52.160;20.910;2023-05-31T01:41:39;26.60;30.80
21171;DHT22;10743;52.160;20.910;2023-05-31T01:44:08;26.50;31.00
21171;DHT22;10743;52.160;20.910;2023-05-31T01:46:37;26.50;30.90
21171;DHT22;10743;52.160;20.910;2023-05-31T01:49:05;26.50;30.90
21171;DHT22;10743;52.160;20.910;2023-05-31T01:51:33;26.50;31.10
21171;DHT22;10743;52.160;20.910;2023-05-31T01:54:04;26.50;31.90
21171;DHT22;10743;52.160;20.910;2023-05-31T01:56:31;26.40;31.10
21171;DHT22;10743;52.160;20.910;2023-05-31T01:58:59;26.40;31.20
21171;DHT22;10743;52.160;20.910;2023-05-31T02:01:28;26.40;31.30
21171;DHT22;10743;52.160;20.910;2023-05-31T02:03:56;28.20;32.30
21171;DHT22;10743;52.160;20.910;2023-05-31T02:06:24;26.40;31.20
21171;DHT22;10743;52.160;20.910;2023-05-31T02:08:54;26.30;31.30
21171;DHT22;10743;52.160;20.910;2023-05-31T02:11:25;26.30;31.30
21171;DHT22;10743;52.160;20.910;2023-05-31T02:13:55;26.30;31.20
21171;DHT22;10743;52.160;20.910;2023-05-31T02:16:22;26.20;31.40
21171;DHT22;10743;52.160;20.910;2023-05-31T02:18:49;26.20;31.50
21171;DHT22;10743;52.160;20.910;2023-05-31T02:21:21;26.10;31.60
21171;DHT22;10743;52.160;20.910;2023-05-31T02:23:48;26.10;31.60
21171;DHT22;10743;52.160;20.910;2023-05-31T02:26:17;26.10;31.70
21171;DHT22;10743;52.160;20.910;2023-05-31T02:28:44;26.10;31.80
21171;DHT22;10743;52.160;20.910;2023-05-31T02:31:11;26.10;31.90
21171;DHT22;10743;52.160;20.910;2023-05-31T02:33:40;26.00;32.00
21171;DHT22;10743;52.160;20.910;2023-05-31T02:36:10;26.00;32.10
21171;DHT22;10743;52.160;20.910;2023-05-31T02:38:38;26.00;32.10
21171;DHT22;10743;52.160;20.910;2023-05-31T02:41:05;25.90;32.10
21171;DHT22;10743;52.160;20.910;2023-05-31T02:43:32;25.90;32.30
21171;DHT22;10743;52.160;20.910;2023-05-31T02:46:00;25.90;32.30
21171;DHT22;10743;52.160;20.910;2023-05-31T02:48:29;25.80;32.50
21171;DHT22;10743;52.160;20.910;2023-05-31T02:50:57;25.80;32.70
21171;DHT22;10743;52.160;20.910;2023-05-31T02:53:43;25.70;32.70
21171;DHT22;10743;52.160;20.910;2023-05-31T02:56:15;25.70;32.70
21171;DHT22;10743;52.160;20.910;2023-05-31T02:59:18;25.70;32.90
21171;DHT22;10743;52.160;20.910;2023-05-31T03:01:45;25.70;33.70
21171;DHT22;10743;52.160;20.910;2023-05-31T03:04:39;25.60;33.00
21171;DHT22;10743;52.160;20.910;2023-05-31T03:07:08;25.60;33.20
21171;DHT22;10743;52.160;20.910;2023-05-31T03:09:36;25.50;33.20
21171;DHT22;10743;52.160;20.910;2023-05-31T03:12:05;25.50;33.30
21171;DHT22;10743;52.160;20.910;2023-05-31T03:14:33;25.50;32.90
21171;DHT22;10743;52.160;20.910;2023-05-31T03:17:05;25.50;33.50
21171;DHT22;10743;52.160;20.910;2023-05-31T03:19:33;25.50;33.50
21171;DHT22;10743;52.160;20.910;2023-05-31T03:22:02;25.40;33.60
21171;DHT22;10743;52.160;20.910;2023-05-31T03:24:31;25.40;33.60
21171;DHT22;10743;52.160;20.910;2023-05-31T03:26:58;25.40;33.80
21171;DHT22;10743;52.160;20.910;2023-05-31T03:29:27;25.40;33.90
21171;DHT22;10743;52.160;20.910;2023-05-31T03:31:57;25.40;33.90
21171;DHT22;10743;52.160;20.910;2023-05-31T03:34:34;25.40;33.90
21171;DHT22;10743;52.160;20.910;2023-05-31T03:37:01;25.40;34.00
21171;DHT22;10743;52.160;20.910;2023-05-31T03:39:42;25.40;34.00
21171;DHT22;10743;52.160;20.910;2023-05-31T03:42:18;25.40;34.10
21171;DHT22;10743;52.160;20.910;2023-05-31T03:44:45;25.50;34.10
21171;DHT22;10743;52.160;20.910;2023-05-31T03:47:12;25.40;34.00
21171;DHT22;10743;52.160;20.910;2023-05-31T03:49:39;25.40;34.10
21171;DHT22;10743;52.160;20.910;2023-05-31T03:52:08;25.50;34.30
21171;DHT22;10743;52.160;20.910;2023-05-31T03:54:40;25.50;34.20
21171;DHT22;10743;52.160;20.910;2023-05-31T03:57:07;25.50;34.20
21171;DHT22;10743;52.160;20.910;2023-05-31T03:59:34;25.50;34.30
21171;DHT22;10743;52.160;20.910;2023-05-31T04:02:03;25.50;34.20
21171;DHT22;10743;52.160;20.910;2023-05-31T04:04:30;25.50;34.30
21171;DHT22;10743;52.160;20.910;2023-05-31T04:06:58;25.60;34.30
21171;DHT22;10743;52.160;20.910;2023-05-31T04:09:25;25.60;34.30
21171;DHT22;10743;52.160;20.910;2023-05-31T04:11:57;25.60;34.20
21171;DHT22;10743;52.160;20.910;2023-05-31T04:14:24;25.70;34.20
21171;DHT22;10743;52.160;20.910;2023-05-31T04:16:52;25.70;33.90
21171;DHT22;10743;52.160;20.910;2023-05-31T04:19:20;25.70;33.70
21171;DHT22;10743;52.160;20.910;2023-05-31T04:21:48;25.80;33.90
21171;DHT22;10743;52.160;20.910;2023-05-31T04:24:15;25.80;33.70
21171;DHT22;10743;52.160;20.910;2023-05-31T04:26:42;25.90;33.40
21171;DHT22;10743;52.160;20.910;2023-05-31T04:29:10;26.00;33.20
21171;DHT22;10743;52.160;20.910;2023-05-31T04:31:38;26.00;32.90
21171;DHT22;10743;52.160;20.910;2023-05-31T04:34:19;26.00;32.70
21171;DHT22;10743;52.160;20.910;2023-05-31T04:36:49;26.10;32.70
21171;DHT22;10743;52.160;20.910;2023-05-31T04:39:20;26.20;32.50
21171;DHT22;10743;52.160;20.910;2023-05-31T04:41:51;26.30;32.50
21171;DHT22;10743;52.160;20.910;2023-05-31T04:44:18;26.30;32.60
21171;DHT22;10743;52.160;20.910;2023-05-31T04:46:48;26.30;32.90
21171;DHT22;10743;52.160;20.910;2023-05-31T04:49:15;26.40;33.20
21171;DHT22;10743;52.160;20.910;2023-05-31T04:51:42;26.40;32.80
21171;DHT22;10743;52.160;20.910;2023-05-31T04:54:10;26.40;32.70
21171;DHT22;10743;52.160;20.910;2023-05-31T04:56:37;26.50;32.60
21171;DHT22;10743;52.160;20.910;2023-05-31T04:59:04;26.50;32.30
21171;DHT22;10743;52.160;20.910;2023-05-31T05:01:32;26.60;32.40
21171;DHT22;10743;52.160;20.910;2023-05-31T05:04:04;26.60;32.30
21171;DHT22;10743;52.160;20.910;2023-05-31T05:06:32;26.70;31.90
21171;DHT22;10743;52.160;20.910;2023-05-31T05:09:01;26.70;31.80
21171;DHT22;10743;52.160;20.910;2023-05-31T05:11:30;26.70;31.80
21171;DHT22;10743;52.160;20.910;2023-05-31T05:13:57;26.80;31.50
21171;DHT22;10743;52.160;20.910;2023-05-31T05:16:26;26.80;31.30
21171;DHT22;10743;52.160;20.910;2023-05-31T05:18:53;26.80;31.30
21171;DHT22;10743;52.160;20.910;2023-05-31T05:21:23;26.90;31.20
21171;DHT22;10743;52.160;20.910;2023-05-31T05:23:50;26.90;30.70
21171;DHT22;10743;52.160;20.910;2023-05-31T05:26:18;27.00;30.70
21171;DHT22;10743;52.160;20.910;2023-05-31T05:28:45;27.00;30.60
21171;DHT22;10743;52.160;20.910;2023-05-31T05:31:12;27.10;30.60
21171;DHT22;10743;52.160;20.910;2023-05-31T05:33:44;27.10;30.70
21171;DHT22;10743;52.160;20.910;2023-05-31T05:36:12;27.10;31.30
21171;DHT22;10743;52.160;20.910;2023-05-31T05:38:45;27.20;31.20
21171;DHT22;10743;52.160;20.910;2023-05-31T05:41:12;27.20;31.20
21171;DHT22;10743;52.160;20.910;2023-05-31T05:43:42;27.30;31.00
21171;DHT22;10743;52.160;20.910;2023-05-31T05:46:12;27.30;30.90
21171;DHT22;10743;52.160;20.910;2023-05-31T05:48:41;27.30;30.80
21171;DHT22;10743;52.160;20.910;2023-05-31T05:51:09;27.40;31.10
21171;DHT22;10743;52.160;20.910;2023-05-31T05:53:37;27.40;31.50
21171;DHT22;10743;52.160;20.910;2023-05-31T05:56:04;27.50;31.30
21171;DHT22;10743;52.160;20.910;2023-05-31T05:58:41;27.50;30.60
21171;DHT22;10743;52.160;20.910;2023-05-31T06:01:28;27.50;30.60
21171;DHT22;10743;52.160;20.910;2023-05-31T06:03:56;27.60;30.70
21171;DHT22;10743;52.160;20.910;2023-05-31T06:06:24;27.60;30.70
21171;DHT22;10743;52.160;20.910;2023-05-31T06:08:51;27.70;30.40
21171;DHT22;10743;52.160;20.910;2023-05-31T06:11:18;27.70;30.10
21171;DHT22;10743;52.160;20.910;2023-05-31T06:13:46;27.70;29.90
21171;DHT22;10743;52.160;20.910;2023-05-31T06:16:16;27.70;29.70
21171;DHT22;10743;52.160;20.910;2023-05-31T06:18:44;27.80;29.60
21171;DHT22;10743;52.160;20.910;2023-05-31T06:21:11;27.80;29.60
21171;DHT22;10743;52.160;20.910;2023-05-31T06:23:38;27.90;29.50
21171;DHT22;10743;52.160;20.910;2023-05-31T06:26:06;28.00;29.30
21171;DHT22;10743;52.160;20.910;2023-05-31T06:28:33;28.00;29.10
21171;DHT22;10743;52.160;20.910;2023-05-31T06:31:09;28.10;29.00
21171;DHT22;10743;52.160;20.910;2023-05-31T06:33:36;28.10;28.80
21171;DHT22;10743;52.160;20.910;2023-05-31T06:36:04;28.10;28.70
21171;DHT22;10743;52.160;20.910;2023-05-31T06:38:31;28.20;28.60
21171;DHT22;10743;52.160;20.910;2023-05-31T06:41:00;28.20;28.30
21171;DHT22;10743;52.160;20.910;2023-05-31T06:43:28;28.30;28.50
21171;DHT22;10743;52.160;20.910;2023-05-31T06:46:13;28.30;28.50
21171;DHT22;10743;52.160;20.910;2023-05-31T06:49:10;28.40;28.70
21171;DHT22;10743;52.160;20.910;2023-05-31T06:51:57;28.40;28.30
21171;DHT22;10743;52.160;20.910;2023-05-31T06:54:27;28.50;28.10
21171;DHT22;10743;52.160;20.910;2023-05-31T06:56:56;28.50;27.90
21171;DHT22;10743;52.160;20.910;2023-05-31T06:59:24;28.60;27.90
21171;DHT22;10743;52.160;20.910;2023-05-31T07:01:51;28.70;27.70
21171;DHT22;10743;52.160;20.910;2023-05-31T07:04:19;28.70;27.70
21171;DHT22;10743;52.160;20.910;2023-05-31T07:06:48;28.70;27.80
21171;DHT22;10743;52.160;20.910;2023-05-31T07:09:16;28.80;27.40
21171;DHT22;10743;52.160;20.910;2023-05-31T07:11:51;28.80;27.20
21171;DHT22;10743;52.160;20.910;2023-05-31T07:14:19;28.90;27.10
21171;DHT22;10743;52.160;20.910;2023-05-31T07:16:46;29.00;26.90
21171;DHT22;10743;52.160;20.910;2023-05-31T07:19:13;29.00;26.30
21171;DHT22;10743;52.160;20.910;2023-05-31T07:21:40;29.00;25.50
21171;DHT22;10743;52.160;20.910;2023-05-31T07:24:08;29.10;25.40
21171;DHT22;10743;52.160;20.910;2023-05-31T07:26:37;29.20;25.60
21171;DHT22;10743;52.160;20.910;2023-05-31T07:29:04;29.30;25.60
21171;DHT22;10743;52.160;20.910;2023-05-31T07:31:32;29.30;25.30
21171;DHT22;10743;52.160;20.910;2023-05-31T07:34:03;29.30;25.40
21171;DHT22;10743;52.160;20.910;2023-05-31T07:36:30;29.40;25.60
21171;DHT22;10743;52.160;20.910;2023-05-31T07:38:57;29.50;25.30
21171;DHT22;10743;52.160;20.910;2023-05-31T07:41:26;29.50;25.30
21171;DHT22;10743;52.160;20.910;2023-05-31T07:43:54;29.60;25.30
21171;DHT22;10743;52.160;20.910;2023-05-31T07:46:22;29.70;25.00
21171;DHT22;10743;52.160;20.910;2023-05-31T07:48:49;29.70;25.10
21171;DHT22;10743;52.160;20.910;2023-05-31T07:51:16;29.80;25.00
21171;DHT22;10743;52.160;20.910;2023-05-31T07:53:44;29.90;24.60
21171;DHT22;10743;52.160;20.910;2023-05-31T07:56:11;29.90;23.90
21171;DHT22;10743;52.160;20.910;2023-05-31T07:58:38;30.00;24.00
21171;DHT22;10743;52.160;20.910;2023-05-31T08:01:05;30.10;24.20
21171;DHT22;10743;52.160;20.910;2023-05-31T08:03:33;30.10;24.60
21171;DHT22;10743;52.160;20.910;2023-05-31T08:06:00;30.20;24.50
21171;DHT22;10743;52.160;20.910;2023-05-31T08:08:27;30.30;24.50
21171;DHT22;10743;52.160;20.910;2023-05-31T08:10:54;30.30;23.80
21171;DHT22;10743;52.160;20.910;2023-05-31T08:13:21;30.40;24.00
21171;DHT22;10743;52.160;20.910;2023-05-31T08:15:50;30.40;23.40
21171;DHT22;10743;52.160;20.910;2023-05-31T08:18:19;30.40;23.50
21171;DHT22;10743;52.160;20.910;2023-05-31T08:20:46;30.50;22.80
21171;DHT22;10743;52.160;20.910;2023-05-31T08:23:20;30.60;23.20
21171;DHT22;10743;52.160;20.910;2023-05-31T08:25:48;30.70;23.10
21171;DHT22;10743;52.160;20.910;2023-05-31T08:28:15;30.70;22.80
21171;DHT22;10743;52.160;20.910;2023-05-31T08:30:42;30.80;22.20
21171;DHT22;10743;52.160;20.910;2023-05-31T08:33:11;30.80;23.00
21171;DHT22;10743;52.160;20.910;2023-05-31T08:35:38;30.90;23.20
21171;DHT22;10743;52.160;20.910;2023-05-31T08:38:07;31.00;22.40
21171;DHT22;10743;52.160;20.910;2023-05-31T08:40:34;31.10;23.30
21171;DHT22;10743;52.160;20.910;2023-05-31T08:43:12;31.20;22.80
21171;DHT22;10743;52.160;20.910;2023-05-31T08:45:43;31.20;22.30
21171;DHT22;10743;52.160;20.910;2023-05-31T08:48:38;31.30;21.90
21171;DHT22;10743;52.160;20.910;2023-05-31T08:51:09;31.40;22.00
21171;DHT22;10743;52.160;20.910;2023-05-31T08:53:37;31.50;21.80
21171;DHT22;10743;52.160;20.910;2023-05-31T08:56:05;31.50;21.50
21171;DHT22;10743;52.160;20.910;2023-05-31T08:58:33;31.60;21.50
21171;DHT22;10743;52.160;20.910;2023-05-31T09:01:02;31.60;21.60
21171;DHT22;10743;52.160;20.910;2023-05-31T09:03:31;31.70;20.80
21171;DHT22;10743;52.160;20.910;2023-05-31T09:05:59;31.70;21.10
21171;DHT22;10743;52.160;20.910;2023-05-31T09:08:26;31.80;20.80
21171;DHT22;10743;52.160;20.910;2023-05-31T09:10:53;31.80;20.80
21171;DHT22;10743;52.160;20.910;2023-05-31T09:13:21;31.90;21.20
21171;DHT22;10743;52.160;20.910;2023-05-31T09:15:48;32.00;21.50
21171;DHT22;10743;52.160;20.910;2023-05-31T09:18:19;32.00;21.50
21171;DHT22;10743;52.160;20.910;2023-05-31T09:20:48;32.00;20.70
21171;DHT22;10743;52.160;20.910;2023-05-31T09:23:19;32.10;21.20
21171;DHT22;10743;52.160;20.910;2023-05-31T09:25:48;32.20;20.70
21171;DHT22;10743;52.160;20.910;2023-05-31T09:28:18;32.20;20.80
21171;DHT22;10743;52.160;20.910;2023-05-31T09:31:03;32.30;20.90
21171;DHT22;10743;52.160;20.910;2023-05-31T09:33:40;32.40;20.70
21171;DHT22;10743;52.160;20.910;2023-05-31T09:36:09;32.50;20.40
21171;DHT22;10743;52.160;20.910;2023-05-31T09:38:38;32.50;20.20
21171;DHT22;10743;52.160;20.910;2023-05-31T09:41:18;32.50;20.60
21171;DHT22;10743;52.160;20.910;2023-05-31T09:43:47;32.60;20.00
21171;DHT22;10743;52.160;20.910;2023-05-31T09:46:17;32.70;20.30
21171;DHT22;10743;52.160;20.910;2023-05-31T09:48:56;32.70;20.50
21171;DHT22;10743;52.160;20.910;2023-05-31T09:51:25;32.80;20.50
21171;DHT22;10743;52.160;20.910;2023-05-31T09:53:52;32.80;19.90
21171;DHT22;10743;52.160;20.910;2023-05-31T09:56:24;32.90;20.30
21171;DHT22;10743;52.160;20.910;2023-05-31T09:58:58;32.90;19.80
21171;DHT22;10743;52.160;20.910;2023-05-31T10:01:28;32.90;19.90
21171;DHT22;10743;52.160;20.910;2023-05-31T10:03:55;33.00;20.00
21171;DHT22;10743;52.160;20.910;2023-05-31T10:06:22;33.10;19.80
21171;DHT22;10743;52.160;20.910;2023-05-31T10:08:50;33.10;20.30
21171;DHT22;10743;52.160;20.910;2023-05-31T10:11:30;33.20;20.10
21171;DHT22;10743;52.160;20.910;2023-05-31T10:14:10;33.30;20.70
21171;DHT22;10743;52.160;20.910;2023-05-31T10:16:49;33.40;20.90
21171;DHT22;10743;52.160;20.910;2023-05-31T10:19:22;33.40;20.60
21171;DHT22;10743;52.160;20.910;2023-05-31T10:21:51;33.40;19.30
21171;DHT22;10743;52.160;20.910;2023-05-31T10:24:27;33.50;19.30
21171;DHT22;10743;52.160;20.910;2023-05-31T10:27:12;33.60;19.60
21171;DHT22;10743;52.160;20.910;2023-05-31T10:29:51;33.70;19.80
21171;DHT22;10743;52.160;20.910;2023-05-31T10:32:26;33.70;19.40
21171;DHT22;10743;52.160;20.910;2023-05-31T10:34:54;33.80;19.90
21171;DHT22;10743;52.160;20.910;2023-05-31T10:37:22;33.90;19.30
21171;DHT22;10743;52.160;20.910;2023-05-31T10:39:53;34.00;18.70
21171;DHT22;10743;52.160;20.910;2023-05-31T10:45:16;34.00;19.40
21171;DHT22;10743;52.160;20.910;2023-05-31T10:48:00;34.10;19.90
21171;DHT22;10743;52.160;20.910;2023-05-31T10:50:30;34.20;19.60
21171;DHT22;10743;52.160;20.910;2023-05-31T10:53:11;34.20;19.40
21171;DHT22;10743;52.160;20.910;2023-05-31T10:55:42;34.30;19.20
21171;DHT22;10743;52.160;20.910;2023-05-31T10:58:30;34.30;18.70
21171;DHT22;10743;52.160;20.910;2023-05-31T11:01:06;34.30;19.60
21171;DHT22;10743;52.160;20.910;2023-05-31T11:03:36;34.40;19.80
21171;DHT22;10743;52.160;20.910;2023-05-31T11:06:14;34.50;19.40
21171;DHT22;10743;52.160;20.910;2023-05-31T11:09:01;34.50;19.30
21171;DHT22;10743;52.160;20.910;2023-05-31T11:14:22;34.60;19.00
21171;DHT22;10743;52.160;20.910;2023-05-31T11:19:36;34.60;18.60
21171;DHT22;10743;52.160;20.910;2023-05-31T11:22:14;34.60;18.70
21171;DHT22;10743;52.160;20.910;2023-05-31T11:24:50;34.70;19.40
21171;DHT22;10743;52.160;20.910;2023-05-31T11:27:23;34.70;19.00
21171;DHT22;10743;52.160;20.910;2023-05-31T11:30:00;34.70;19.60
21171;DHT22;10743;52.160;20.910;2023-05-31T11:35:04;34.80;19.10
21171;DHT22;10743;52.160;20.910;2023-05-31T11:37:35;34.80;19.70
21171;DHT22;10743;52.160;20.910;2023-05-31T11:40:04;34.90;19.80
21171;DHT22;10743;52.160;20.910;2023-05-31T11:42:38;34.80;19.70
21171;DHT22;10743;52.160;20.910;2023-05-31T11:45:11;34.90;19.20
21171;DHT22;10743;52.160;20.910;2023-05-31T11:50:17;35.00;19.50
21171;DHT22;10743;52.160;20.910;2023-05-31T11:52:45;35.10;19.30
21171;DHT22;10743;52.160;20.910;2023-05-31T11:55:15;35.10;19.90
21171;DHT22;10743;52.160;20.910;2023-05-31T11:57:48;35.20;19.10
21171;DHT22;10743;52.160;20.910;2023-05-31T12:00:19;35.20;19.00
21171;DHT22;10743;52.160;20.910;2023-05-31T12:02:54;35.20;18.70
21171;DHT22;10743;52.160;20.910;2023-05-31T12:05:25;35.20;19.60
21171;DHT22;10743;52.160;20.910;2023-05-31T12:07:54;35.30;19.10
21171;DHT22;10743;52.160;20.910;2023-05-31T12:10:31;35.30;19.30
21171;DHT22;10743;52.160;20.910;2023-05-31T12:12:59;35.30;19.30
21171;DHT22;10743;52.160;20.910;2023-05-31T12:15:30;35.30;18.80
21171;DHT22;10743;52.160;20.910;2023-05-31T12:17:58;35.40;18.60
21171;DHT22;10743;52.160;20.910;2023-05-31T12:20:30;35.40;18.60
21171;DHT22;10743;52.160;20.910;2023-05-31T12:23:14;35.40;18.70
21171;DHT22;10743;52.160;20.910;2023-05-31T12:25:49;35.50;19.00
21171;DHT22;10743;52.160;20.910;2023-05-31T12:28:18;35.60;18.80
21171;DHT22;10743;52.160;20.910;2023-05-31T12:30:48;35.60;19.00
21171;DHT22;10743;52.160;20.910;2023-05-31T12:33:24;35.70;18.90
21171;DHT22;10743;52.160;20.910;2023-05-31T12:35:56;35.70;19.20
21171;DHT22;10743;52.160;20.910;2023-05-31T12:38:30;35.80;19.10
21171;DHT22;10743;52.160;20.910;2023-05-31T12:41:06;35.90;18.30
21171;DHT22;10743;52.160;20.910;2023-05-31T12:43:33;35.90;17.70
21171;DHT22;10743;52.160;20.910;2023-05-31T12:46:00;36.00;17.80
21171;DHT22;10743;52.160;20.910;2023-05-31T12:48:48;36.10;17.30
21171;DHT22;10743;52.160;20.910;2023-05-31T12:51:22;36.10;17.40
21171;DHT22;10743;52.160;20.910;2023-05-31T12:53:51;36.20;17.30
21171;DHT22;10743;52.160;20.910;2023-05-31T12:56:21;36.10;17.60
21171;DHT22;10743;52.160;20.910;2023-05-31T12:58:50;36.20;17.00
21171;DHT22;10743;52.160;20.910;2023-05-31T13:01:18;36.30;17.20
21171;DHT22;10743;52.160;20.910;2023-05-31T13:03:45;36.30;16.90
21171;DHT22;10743;52.160;20.910;2023-05-31T13:06:15;36.30;18.20
21171;DHT22;10743;52.160;20.910;2023-05-31T13:08:42;36.30;17.80
21171;DHT22;10743;52.160;20.910;2023-05-31T13:11:11;36.30;18.20
21171;DHT22;10743;52.160;20.910;2023-05-31T13:13:40;36.30;18.00
21171;DHT22;10743;52.160;20.910;2023-05-31T13:16:09;36.30;18.20
21171;DHT22;10743;52.160;20.910;2023-05-31T13:18:36;36.30;17.50
21171;DHT22;10743;52.160;20.910;2023-05-31T13:21:03;36.30;17.60
21171;DHT22;10743;52.160;20.910;2023-05-31T13:23:30;36.30;18.20
21171;DHT22;10743;52.160;20.910;2023-05-31T13:25:57;36.30;18.10
21171;DHT22;10743;52.160;20.910;2023-05-31T13:28:25;36.20;18.40
21171;DHT22;10743;52.160;20.910;2023-05-31T13:30:52;36.20;18.30
21171;DHT22;10743;52.160;20.910;2023-05-31T13:33:19;36.20;17.90
21171;DHT22;10743;52.160;20.910;2023-05-31T13:35:46;36.20;18.10
21171;DHT22;10743;52.160;20.910;2023-05-31T13:38:13;36.20;18.20
21171;DHT22;10743;52.160;20.910;2023-05-31T13:40:41;36.10;18.30
21171;DHT22;10743;52.160;20.910;2023-05-31T13:43:09;36.10;18.50
21171;DHT22;10743;52.160;20.910;2023-05-31T13:45:36;36.10;18.40
21171;DHT22;10743;52.160;20.910;2023-05-31T13:48:03;36.00;17.70
21171;DHT22;10743;52.160;20.910;2023-05-31T13:50:30;36.00;18.50
21171;DHT22;10743;52.160;20.910;2023-05-31T13:52:57;36.00;18.10
21171;DHT22;10743;52.160;20.910;2023-05-31T13:55:24;35.90;17.80
21171;DHT22;10743;52.160;20.910;2023-05-31T13:57:51;35.90;18.00
21171;DHT22;10743;52.160;20.910;2023-05-31T14:00:18;35.90;17.80
21171;DHT22;10743;52.160;20.910;2023-05-31T14:02:45;35.90;18.10
21171;DHT22;10743;52.160;20.910;2023-05-31T14:05:14;35.80;18.20
21171;DHT22;10743;52.160;20.910;2023-05-31T14:07:41;35.80;18.30
21171;DHT22;10743;52.160;20.910;2023-05-31T14:10:08;35.80;17.60
21171;DHT22;10743;52.160;20.910;2023-05-31T14:12:36;35.80;17.40
21171;DHT22;10743;52.160;20.910;2023-05-31T14:15:03;35.80;17.40
21171;DHT22;10743;52.160;20.910;2023-05-31T14:17:31;35.70;17.60
21171;DHT22;10743;52.160;20.910;2023-05-31T14:19:58;35.70;17.30
21171;DHT22;10743;52.160;20.910;2023-05-31T14:22:25;35.70;17.60
21171;DHT22;10743;52.160;20.910;2023-05-31T14:24:52;35.60;17.70
21171;DHT22;10743;52.160;20.910;2023-05-31T14:27:19;35.60;18.00
21171;DHT22;10743;52.160;20.910;2023-05-31T14:29:46;35.60;18.00
21171;DHT22;10743;52.160;20.910;2023-05-31T14:32:13;35.60;18.20
21171;DHT22;10743;52.160;20.910;2023-05-31T14:34:43;35.60;18.00
21171;DHT22;10743;52.160;20.910;2023-05-31T14:37:12;35.50;18.20
21171;DHT22;10743;52.160;20.910;2023-05-31T14:39:54;35.50;18.40
21171;DHT22;10743;52.160;20.910;2023-05-31T14:42:21;35.50;18.10
21171;DHT22;10743;52.160;20.910;2023-05-31T14:44:49;35.50;18.10
21171;DHT22;10743;52.160;20.910;2023-05-31T14:47:16;35.50;18.00
21171;DHT22;10743;52.160;20.910;2023-05-31T14:49:44;35.50;18.10
21171;DHT22;10743;52.160;20.910;2023-05-31T14:52:11;35.50;18.20
21171;DHT22;10743;52.160;20.910;2023-05-31T14:54:38;35.40;18.00
21171;DHT22;10743;52.160;20.910;2023-05-31T14:57:05;35.30;18.00
21171;DHT22;10743;52.160;20.910;2023-05-31T14:59:32;35.40;18.20
21171;DHT22;10743;52.160;20.910;2023-05-31T15:02:00;35.30;17.90
21171;DHT22;10743;52.160;20.910;2023-05-31T15:04:28;35.30;18.00
21171;DHT22;10743;52.160;20.910;2023-05-31T15:06:55;35.30;18.50
21171;DHT22;10743;52.160;20.910;2023-05-31T15:09:22;35.30;18.20
21171;DHT22;10743;52.160;20.910;2023-05-31T15:11:49;35.30;18.00
21171;DHT22;10743;52.160;20.910;2023-05-31T15:14:16;35.30;18.20
21171;DHT22;10743;52.160;20.910;2023-05-31T15:16:43;35.20;18.40
21171;DHT22;10743;52.160;20.910;2023-05-31T15:19:10;35.20;18.10
21171;DHT22;10743;52.160;20.910;2023-05-31T15:21:38;35.20;17.80
21171;DHT22;10743;52.160;20.910;2023-05-31T15:24:05;35.10;17.90
21171;DHT22;10743;52.160;20.910;2023-05-31T15:26:33;35.10;17.80
21171;DHT22;10743;52.160;20.910;2023-05-31T15:29:00;35.10;17.50
21171;DHT22;10743;52.160;20.910;2023-05-31T15:31:27;35.00;17.30
21171;DHT22;10743;52.160;20.910;2023-05-31T15:33:54;35.00;17.30
21171;DHT22;10743;52.160;20.910;2023-05-31T15:36:22;35.00;16.90
21171;DHT22;10743;52.160;20.910;2023-05-31T15:38:49;35.00;17.20
21171;DHT22;10743;52.160;20.910;2023-05-31T15:41:17;34.90;16.90
21171;DHT22;10743;52.160;20.910;2023-05-31T15:43:44;34.90;17.50
21171;DHT22;10743;52.160;20.910;2023-05-31T15:46:11;34.90;17.50
21171;DHT22;10743;52.160;20.910;2023-05-31T15:48:38;34.90;17.60
21171;DHT22;10743;52.160;20.910;2023-05-31T15:51:05;34.80;17.30